createdAt,value
2023-01-29T00:01:14.753Z,94.87
2023-01-29T00:03:43.328Z,94.79
2023-01-29T00:06:18.871Z,95.34
2023-01-29T00:08:48.671Z,95.00
2023-01-29T00:11:17.761Z,95.03
2023-01-29T00:13:51.114Z,95.11
2023-01-29T00:16:19.577Z,95.34
2023-01-29T00:18:49.507Z,95.26
2023-01-29T00:21:19.744Z,95.57
2023-01-29T00:23:49.368Z,95.57
2023-01-29T00:26:18.631Z,95.86
2023-01-29T00:28:49.955Z,95.79
2023-01-29T00:31:19.103Z,95.91
2023-01-29T00:33:47.378Z,96.04
2023-01-29T00:36:16.993Z,95.94
2023-01-29T00:38:54.861Z,95.97
2023-01-29T00:41:46.826Z,96.18
2023-01-29T00:44:34.073Z,96.47
2023-01-29T00:47:05.022Z,96.40
2023-01-29T00:49:33.744Z,96.60
2023-01-29T00:52:19.181Z,96.74
2023-01-29T00:54:52.453Z,96.76
2023-01-29T00:57:23.915Z,96.94
2023-01-29T01:00:01.687Z,97.00
2023-01-29T01:02:47.415Z,96.81
2023-01-29T01:05:18.974Z,97.15
2023-01-29T01:07:52.799Z,97.13
2023-01-29T01:10:24.495Z,97.21
2023-01-29T01:12:54.803Z,97.20
2023-01-29T01:15:23.954Z,97.32
2023-01-29T01:17:55.463Z,97.46
2023-01-29T01:20:26.818Z,97.38
2023-01-29T01:22:55.415Z,97.36
2023-01-29T01:25:28.513Z,97.34
2023-01-29T01:30:33.108Z,97.66
2023-01-29T01:33:01.695Z,97.99
2023-01-29T01:35:34.567Z,98.08
2023-01-29T01:38:06.232Z,98.16
2023-01-29T01:40:37.005Z,98.34
2023-01-29T01:43:05.360Z,98.47
2023-01-29T01:45:36.540Z,98.55
2023-01-29T01:48:06.673Z,98.70
2023-01-29T01:50:36.791Z,98.78
2023-01-29T01:53:07.762Z,98.51
2023-01-29T01:55:42.008Z,98.56
2023-01-29T01:58:11.602Z,98.23
2023-01-29T02:00:41.497Z,98.15
2023-01-29T02:03:28.800Z,98.23
2023-01-29T02:06:16.838Z,98.29
2023-01-29T02:09:08.161Z,98.56
2023-01-29T02:11:39.144Z,98.45
2023-01-29T02:14:08.309Z,98.81
2023-01-29T02:16:38.275Z,99.04
2023-01-29T02:19:11.455Z,99.07
2023-01-29T02:21:47.807Z,98.94
2023-01-29T02:24:31.183Z,98.93
2023-01-29T02:27:04.935Z,99.21
2023-01-29T02:29:46.010Z,99.31
2023-01-29T02:32:23.828Z,99.37
2023-01-29T02:35:16.771Z,99.47
2023-01-29T02:37:50.947Z,99.62
2023-01-29T02:40:23.779Z,99.82
2023-01-29T02:42:55.853Z,99.77
2023-01-29T02:45:29.981Z,99.74
2023-01-29T02:48:00.388Z,99.92
2023-01-29T02:50:33.040Z,99.85
2023-01-29T02:53:04.609Z,99.99
2023-01-29T02:55:41.178Z,99.99
2023-01-29T02:58:13.363Z,99.99
2023-01-29T03:00:46.622Z,99.99
2023-01-29T03:03:19.800Z,99.99
2023-01-29T03:05:57.088Z,99.99
2023-01-29T03:08:37.218Z,99.99
2023-01-29T03:11:07.708Z,99.99
2023-01-29T03:13:42.150Z,99.99
2023-01-29T03:16:19.218Z,99.99
2023-01-29T03:18:53.311Z,99.99
2023-01-29T03:21:41.918Z,99.99
2023-01-29T03:24:28.851Z,99.99
2023-01-29T03:27:17.484Z,99.99
2023-01-29T03:30:07.511Z,99.99
2023-01-29T03:32:39.003Z,99.99
2023-01-29T03:35:09.543Z,99.99
2023-01-29T03:37:42.636Z,99.99
2023-01-29T03:40:14.132Z,99.89
2023-01-29T03:42:46.307Z,99.63
2023-01-29T03:45:16.813Z,99.64
2023-01-29T03:47:52.776Z,99.56
2023-01-29T03:50:30.639Z,99.24
2023-01-29T03:53:08.704Z,99.47
2023-01-29T03:55:40.057Z,99.25
2023-01-29T03:58:16.769Z,99.50
2023-01-29T04:00:49.395Z,99.12
2023-01-29T04:03:22.037Z,99.04
2023-01-29T04:05:54.384Z,98.89
2023-01-29T04:08:28.640Z,99.00
2023-01-29T04:10:58.444Z,99.19
2023-01-29T04:13:30.097Z,99.06
2023-01-29T04:15:59.703Z,98.83
2023-01-29T04:18:33.518Z,98.98
2023-01-29T04:21:07.449Z,98.70
2023-01-29T04:23:37.487Z,98.76
2023-01-29T04:26:13.471Z,98.62
2023-01-29T04:28:53.109Z,98.72
2023-01-29T04:31:24.461Z,99.12
2023-01-29T04:34:01.752Z,98.96
2023-01-29T04:36:35.227Z,98.91
2023-01-29T04:39:11.665Z,98.93
2023-01-29T04:41:46.423Z,98.96
2023-01-29T04:44:18.089Z,98.75
2023-01-29T04:46:49.179Z,98.58
2023-01-29T04:49:28.110Z,98.61
2023-01-29T04:52:01.657Z,98.91
2023-01-29T04:54:33.880Z,98.97
2023-01-29T04:57:10.099Z,98.85
2023-01-29T04:59:43.455Z,98.67
2023-01-29T05:02:18.270Z,98.62
2023-01-29T05:04:48.613Z,98.60
2023-01-29T05:07:20.122Z,98.27
2023-01-29T05:09:50.659Z,98.45
2023-01-29T05:12:19.898Z,98.05
2023-01-29T05:14:48.867Z,98.15
2023-01-29T05:17:17.599Z,98.22
2023-01-29T05:19:53.133Z,98.45
2023-01-29T05:22:24.436Z,98.24
2023-01-29T05:25:00.341Z,98.14
2023-01-29T05:27:50.190Z,97.92
2023-01-29T05:30:20.367Z,97.64
2023-01-29T05:32:49.617Z,97.68
2023-01-29T05:35:19.986Z,97.62
2023-01-29T05:37:48.340Z,97.88
2023-01-29T05:40:37.935Z,97.84
2023-01-29T05:43:06.105Z,97.93
2023-01-29T05:45:35.255Z,98.31
2023-01-29T05:48:05.409Z,97.98
2023-01-29T05:50:41.900Z,98.06
2023-01-29T05:53:12.792Z,97.54
2023-01-29T05:55:41.631Z,97.82
2023-01-29T05:58:09.648Z,97.78
2023-01-29T06:00:44.190Z,97.90
2023-01-29T06:03:14.036Z,97.71
2023-01-29T06:05:47.341Z,97.63
2023-01-29T06:08:16.431Z,97.58
2023-01-29T06:10:44.999Z,97.86
2023-01-29T06:13:13.326Z,97.34
2023-01-29T06:15:43.660Z,97.62
2023-01-29T06:18:13.246Z,97.71
2023-01-29T06:20:44.013Z,97.69
2023-01-29T06:23:15.635Z,97.47
2023-01-29T06:25:45.180Z,97.11
2023-01-29T06:28:15.663Z,96.63
2023-01-29T06:30:44.872Z,96.78
2023-01-29T06:33:15.408Z,96.65
2023-01-29T06:35:46.060Z,96.13
2023-01-29T06:38:20.242Z,95.64
2023-01-29T06:40:50.058Z,95.91
2023-01-29T06:43:20.270Z,95.43
2023-01-29T06:45:49.190Z,94.89
2023-01-29T06:48:21.333Z,94.90
2023-01-29T06:50:56.383Z,94.92
2023-01-29T06:53:26.147Z,94.69
2023-01-29T06:55:56.428Z,94.07
2023-01-29T06:58:26.274Z,94.32
2023-01-29T07:01:03.802Z,93.37
2023-01-29T07:03:34.130Z,93.87
2023-01-29T07:06:05.020Z,93.72
2023-01-29T07:08:37.168Z,93.34
2023-01-29T07:11:08.511Z,93.38
2023-01-29T07:13:37.617Z,93.67
2023-01-29T07:16:07.028Z,93.58
2023-01-29T07:18:37.187Z,93.09
2023-01-29T07:21:10.800Z,93.29
2023-01-29T07:23:44.929Z,92.80
2023-01-29T07:26:13.225Z,92.97
2023-01-29T07:28:41.795Z,92.75
2023-01-29T07:31:13.017Z,92.95
2023-01-29T07:33:46.023Z,92.81
2023-01-29T07:36:16.916Z,92.67
2023-01-29T07:38:49.843Z,92.45
2023-01-29T07:41:19.713Z,92.59
2023-01-29T07:43:48.319Z,92.53
2023-01-29T07:46:22.142Z,92.70
2023-01-29T07:48:53.919Z,92.44
2023-01-29T07:51:26.623Z,91.68
2023-01-29T07:53:56.240Z,91.71
2023-01-29T07:56:26.116Z,91.64
2023-01-29T07:58:54.468Z,92.00
2023-01-29T08:01:26.631Z,91.72
2023-01-29T08:03:55.340Z,91.79
2023-01-29T08:06:29.658Z,91.70
2023-01-29T08:09:00.179Z,91.73
2023-01-29T08:11:29.096Z,91.63
2023-01-29T08:13:59.816Z,91.55
2023-01-29T08:16:34.386Z,91.02
2023-01-29T08:19:03.975Z,91.40
2023-01-29T08:21:36.280Z,90.78
2023-01-29T08:24:04.579Z,90.74
2023-01-29T08:26:34.553Z,91.04
2023-01-29T08:29:04.629Z,91.20
2023-01-29T08:31:33.809Z,91.05
2023-01-29T08:34:03.732Z,90.86
2023-01-29T08:36:37.806Z,90.04
2023-01-29T08:39:08.056Z,90.23
2023-01-29T08:41:38.101Z,90.12
2023-01-29T08:44:06.149Z,90.11
2023-01-29T08:46:37.054Z,89.94
2023-01-29T08:49:05.223Z,89.80
2023-01-29T08:51:41.348Z,90.16
2023-01-29T08:54:09.874Z,89.76
2023-01-29T08:56:39.670Z,89.93
2023-01-29T08:59:08.495Z,89.86
2023-01-29T09:01:40.260Z,89.42
2023-01-29T09:04:10.296Z,88.99
2023-01-29T09:06:43.675Z,88.74
2023-01-29T09:09:12.078Z,88.77
2023-01-29T09:11:42.147Z,88.59
2023-01-29T09:14:12.499Z,88.31
2023-01-29T09:16:42.422Z,87.87
2023-01-29T09:19:12.088Z,87.88
2023-01-29T09:21:41.706Z,88.10
2023-01-29T09:24:13.320Z,88.05
2023-01-29T09:26:44.600Z,87.72
2023-01-29T09:29:14.272Z,87.76
2023-01-29T09:31:42.552Z,87.47
2023-01-29T09:34:12.073Z,87.48
2023-01-29T09:36:44.163Z,87.21
2023-01-29T09:39:17.383Z,87.07
2023-01-29T09:41:51.584Z,86.71
2023-01-29T09:44:28.321Z,86.65
2023-01-29T09:47:00.401Z,86.53
2023-01-29T09:49:31.711Z,86.83
2023-01-29T09:52:06.972Z,86.31
2023-01-29T09:54:55.498Z,86.29
2023-01-29T09:57:26.118Z,85.85
2023-01-29T09:59:56.245Z,85.76
2023-01-29T10:02:35.425Z,85.87
2023-01-29T10:05:15.878Z,85.32
2023-01-29T10:07:58.998Z,85.39
2023-01-29T10:10:31.777Z,85.23
2023-01-29T10:13:13.072Z,85.14
2023-01-29T10:15:51.091Z,85.49
2023-01-29T10:18:30.709Z,85.45
2023-01-29T10:21:04.684Z,85.16
2023-01-29T10:23:37.776Z,85.15
2023-01-29T10:26:09.271Z,85.07
2023-01-29T10:28:42.697Z,84.72
2023-01-29T10:31:12.807Z,84.63
2023-01-29T10:33:49.172Z,84.36
2023-01-29T10:36:29.986Z,83.93
2023-01-29T10:39:02.483Z,84.26
2023-01-29T10:41:41.391Z,83.67
2023-01-29T10:44:15.215Z,84.18
2023-01-29T10:46:55.699Z,83.91
2023-01-29T10:49:29.407Z,82.85
2023-01-29T10:52:08.659Z,83.07
2023-01-29T10:54:48.390Z,82.40
2023-01-29T10:57:24.480Z,81.63
2023-01-29T11:00:04.545Z,80.91
2023-01-29T11:02:35.162Z,80.53
2023-01-29T11:05:06.376Z,80.85
2023-01-29T11:07:34.569Z,80.51
2023-01-29T11:10:09.726Z,80.42
2023-01-29T11:12:43.933Z,80.16
2023-01-29T11:15:18.218Z,79.55
2023-01-29T11:18:01.106Z,79.33
2023-01-29T11:20:30.750Z,80.08
2023-01-29T11:23:00.424Z,79.97
2023-01-29T11:25:32.789Z,79.07
2023-01-29T11:28:02.067Z,79.42
2023-01-29T11:30:32.564Z,79.60
2023-01-29T11:33:10.085Z,79.75
2023-01-29T11:35:38.406Z,79.64
2023-01-29T11:38:09.761Z,79.85
2023-01-29T11:40:44.425Z,80.29
2023-01-29T11:43:15.141Z,80.33
2023-01-29T11:45:43.411Z,80.71
2023-01-29T11:48:15.882Z,80.21
2023-01-29T11:50:52.540Z,79.68
2023-01-29T11:53:25.056Z,79.55
2023-01-29T11:55:56.357Z,78.73
2023-01-29T11:58:29.217Z,78.77
2023-01-29T12:01:01.117Z,78.52
2023-01-29T12:03:35.596Z,78.43
2023-01-29T12:06:05.410Z,78.16
2023-01-29T12:08:36.431Z,78.08
2023-01-29T12:11:14.062Z,77.88
2023-01-29T12:13:44.186Z,78.25
2023-01-29T12:16:18.737Z,78.70
2023-01-29T12:18:52.131Z,78.77
2023-01-29T12:21:25.274Z,78.35
2023-01-29T12:23:58.427Z,78.76
2023-01-29T12:26:31.706Z,78.22
2023-01-29T12:29:09.322Z,78.12
2023-01-29T12:31:43.997Z,77.86
2023-01-29T12:34:15.248Z,77.91
2023-01-29T12:36:53.218Z,77.07
2023-01-29T12:39:22.061Z,77.87
2023-01-29T12:41:54.720Z,77.28
2023-01-29T12:44:36.045Z,76.81
2023-01-29T12:47:07.535Z,77.05
2023-01-29T12:49:39.273Z,76.69
2023-01-29T12:52:11.520Z,76.59
2023-01-29T12:54:43.492Z,76.66
2023-01-29T12:57:21.086Z,76.70
2023-01-29T12:59:54.004Z,76.40
2023-01-29T13:02:28.487Z,76.30
2023-01-29T13:04:59.060Z,76.19
2023-01-29T13:07:29.872Z,76.65
2023-01-29T13:10:03.076Z,75.98
2023-01-29T13:12:36.530Z,76.39
2023-01-29T13:15:07.288Z,76.28
2023-01-29T13:17:37.610Z,76.03
2023-01-29T13:20:13.768Z,76.19
2023-01-29T13:22:44.078Z,75.96
2023-01-29T13:25:13.846Z,75.94
2023-01-29T13:27:45.985Z,75.73
2023-01-29T13:30:25.575Z,75.33
2023-01-29T13:32:55.104Z,75.67
2023-01-29T13:35:24.356Z,74.07
2023-01-29T13:37:54.395Z,75.00
2023-01-29T13:40:24.911Z,75.04
2023-01-29T13:42:56.958Z,75.48
2023-01-29T13:45:35.562Z,74.98
2023-01-29T13:48:11.087Z,75.10
2023-01-29T13:50:40.368Z,76.00
2023-01-29T13:53:10.463Z,75.16
2023-01-29T13:55:40.724Z,75.09
2023-01-29T13:58:17.112Z,75.25
2023-01-29T14:00:54.680Z,74.92
2023-01-29T14:04:04.860Z,75.40
2023-01-29T14:06:50.841Z,75.84
2023-01-29T14:09:37.400Z,76.41
2023-01-29T14:12:26.146Z,76.07
2023-01-29T14:15:06.441Z,76.27
2023-01-29T14:17:35.276Z,76.74
2023-01-29T14:20:05.470Z,76.60
2023-01-29T14:22:36.029Z,77.09
2023-01-29T14:25:09.185Z,77.27
2023-01-29T14:27:38.633Z,77.37
2023-01-29T14:30:22.069Z,77.22
2023-01-29T14:32:53.132Z,77.62
2023-01-29T14:35:23.430Z,77.38
2023-01-29T14:37:57.781Z,77.61
2023-01-29T14:40:29.780Z,77.52
2023-01-29T14:43:01.195Z,77.93
2023-01-29T14:45:37.800Z,78.05
2023-01-29T14:48:20.940Z,77.71
2023-01-29T14:50:52.310Z,77.60
2023-01-29T14:53:26.266Z,77.98
2023-01-29T14:56:00.877Z,78.24
2023-01-29T14:58:39.167Z,77.25
2023-01-29T15:01:17.467Z,77.31
2023-01-29T15:03:50.417Z,77.15
2023-01-29T15:06:21.325Z,76.88
2023-01-29T15:08:53.812Z,76.91
2023-01-29T15:11:39.776Z,77.15
2023-01-29T15:14:16.898Z,76.69
2023-01-29T15:16:51.770Z,76.99
2023-01-29T15:19:24.888Z,76.69
2023-01-29T15:22:10.062Z,77.29
2023-01-29T15:24:40.643Z,77.33
2023-01-29T15:27:12.092Z,77.75
2023-01-29T15:29:41.229Z,77.64
2023-01-29T15:32:12.273Z,78.17
2023-01-29T15:34:51.063Z,78.28
2023-01-29T15:37:29.179Z,77.96
2023-01-29T15:39:58.261Z,78.14
2023-01-29T15:42:44.032Z,78.39
2023-01-29T15:45:39.267Z,78.53
2023-01-29T15:48:17.395Z,78.08
2023-01-29T15:50:47.535Z,78.87
2023-01-29T15:53:21.781Z,78.83
2023-01-29T15:55:51.900Z,79.34
2023-01-29T15:58:21.993Z,79.54
2023-01-29T16:04:02.627Z,80.09
2023-01-29T16:06:37.637Z,80.42
2023-01-29T16:09:07.306Z,80.50
2023-01-29T16:11:39.557Z,81.13
2023-01-29T16:17:29.010Z,81.47
2023-01-29T16:20:19.851Z,81.50
2023-01-29T16:22:53.908Z,81.64
2023-01-29T16:25:22.791Z,82.15
2023-01-29T16:27:52.600Z,82.30
2023-01-29T16:30:29.078Z,82.39
2023-01-29T16:33:08.267Z,82.32
2023-01-29T16:35:37.017Z,82.32
2023-01-29T16:38:22.130Z,82.30
2023-01-29T16:41:06.508Z,82.60
2023-01-29T16:43:58.615Z,83.02
2023-01-29T16:46:29.034Z,82.86
2023-01-29T16:48:57.817Z,82.57
2023-01-29T16:51:29.004Z,82.52
2023-01-29T16:54:02.380Z,82.45
2023-01-29T16:56:34.281Z,82.83
2023-01-29T16:59:09.196Z,82.55
2023-01-29T17:01:39.475Z,82.36
2023-01-29T17:04:13.366Z,82.73
2023-01-29T17:06:42.667Z,82.87
2023-01-29T17:09:20.831Z,83.16
2023-01-29T17:11:51.388Z,83.28
2023-01-29T17:14:20.409Z,82.86
2023-01-29T17:16:52.619Z,82.81
2023-01-29T17:19:25.510Z,83.26
2023-01-29T17:21:54.450Z,82.38
2023-01-29T17:24:25.947Z,82.71
2023-01-29T17:26:54.865Z,82.88
2023-01-29T17:29:31.342Z,83.25
2023-01-29T17:32:00.271Z,82.77
2023-01-29T17:34:30.823Z,82.79
2023-01-29T17:37:01.806Z,82.73
2023-01-29T17:39:32.648Z,82.74
2023-01-29T17:42:02.571Z,83.34
2023-01-29T17:44:31.991Z,83.58
2023-01-29T17:47:01.114Z,83.21
2023-01-29T17:49:32.367Z,83.77
2023-01-29T17:52:01.036Z,83.44
2023-01-29T17:54:30.828Z,83.65
2023-01-29T17:57:05.690Z,83.54
2023-01-29T17:59:35.425Z,83.45
2023-01-29T18:02:04.911Z,83.97
2023-01-29T18:04:33.859Z,83.86
2023-01-29T18:07:03.014Z,83.64
2023-01-29T18:09:32.224Z,83.71
2023-01-29T18:12:03.749Z,84.21
2023-01-29T18:14:33.553Z,84.53
2023-01-29T18:17:03.851Z,84.10
2023-01-29T18:19:33.933Z,84.74
2023-01-29T18:22:03.132Z,84.59
2023-01-29T18:24:34.095Z,84.93
2023-01-29T18:27:04.082Z,85.04
2023-01-29T18:29:32.796Z,85.05
2023-01-29T18:32:02.127Z,85.45
2023-01-29T18:34:33.463Z,85.07
2023-01-29T18:37:01.687Z,85.12
2023-01-29T18:39:30.030Z,85.64
2023-01-29T18:42:00.400Z,86.13
2023-01-29T18:44:30.717Z,85.77
2023-01-29T18:47:06.553Z,86.12
2023-01-29T18:49:46.070Z,86.11
2023-01-29T18:52:15.299Z,85.87
2023-01-29T18:54:43.260Z,85.80
2023-01-29T18:58:28.308Z,85.78
2023-01-29T19:00:15.378Z,86.21
2023-01-29T19:02:46.709Z,85.84
2023-01-29T19:05:22.769Z,86.21
2023-01-29T19:07:53.476Z,86.03
2023-01-29T19:10:25.423Z,86.00
2023-01-29T19:13:10.373Z,86.08
2023-01-29T19:15:42.239Z,86.18
2023-01-29T19:18:14.743Z,85.47
2023-01-29T19:20:43.912Z,85.80
2023-01-29T19:23:17.870Z,85.95
2023-01-29T19:25:46.384Z,86.39
2023-01-29T19:28:16.962Z,86.46
2023-01-29T19:30:46.816Z,86.26
2023-01-29T19:33:15.776Z,86.08
2023-01-29T19:35:46.756Z,86.14
2023-01-29T19:38:19.330Z,86.40
2023-01-29T19:40:47.786Z,86.60
2023-01-29T19:43:18.502Z,86.18
2023-01-29T19:45:51.082Z,86.75
2023-01-29T19:48:25.833Z,86.62
2023-01-29T19:50:54.679Z,86.66
2023-01-29T19:53:25.008Z,86.97
2023-01-29T19:56:01.087Z,86.82
2023-01-29T19:58:32.215Z,86.98
2023-01-29T20:01:03.057Z,87.30
2023-01-29T20:03:34.675Z,87.40
2023-01-29T20:06:04.417Z,87.49
2023-01-29T20:08:34.723Z,87.54
2023-01-29T20:11:03.070Z,87.59
2023-01-29T20:13:35.223Z,87.49
2023-01-29T20:16:07.390Z,87.52
2023-01-29T20:18:37.265Z,87.87
2023-01-29T20:21:17.892Z,88.20
2023-01-29T20:23:50.030Z,87.96
2023-01-29T20:26:20.329Z,87.90
2023-01-29T20:28:52.017Z,87.38
2023-01-29T20:31:27.860Z,87.27
2023-01-29T20:33:58.924Z,87.36
2023-01-29T20:36:28.588Z,87.71
2023-01-29T20:38:57.704Z,87.90
2023-01-29T20:41:29.562Z,87.86
2023-01-29T20:43:57.771Z,87.89
2023-01-29T20:46:28.620Z,87.82
2023-01-29T20:49:02.844Z,87.89
2023-01-29T20:51:34.946Z,88.32
2023-01-29T20:54:06.258Z,88.34
2023-01-29T20:56:44.312Z,87.95
2023-01-29T20:59:14.302Z,88.15
2023-01-29T21:01:44.829Z,88.02
2023-01-29T21:04:13.184Z,88.49
2023-01-29T21:06:43.366Z,88.17
2023-01-29T21:09:13.228Z,88.39
2023-01-29T21:11:45.117Z,88.36
2023-01-29T21:14:14.204Z,88.70
2023-01-29T21:16:43.642Z,88.54
2023-01-29T21:19:17.489Z,88.62
2023-01-29T21:21:46.835Z,89.05
2023-01-29T21:24:27.815Z,88.97
2023-01-29T21:27:00.332Z,88.91
2023-01-29T21:29:29.575Z,89.08
2023-01-29T21:32:00.115Z,89.06
2023-01-29T21:34:30.573Z,89.15
2023-01-29T21:36:58.561Z,89.30
2023-01-29T21:39:28.477Z,88.96
2023-01-29T21:42:15.772Z,88.93
2023-01-29T21:44:45.247Z,89.08
2023-01-29T21:47:16.173Z,89.48
2023-01-29T21:49:46.701Z,89.90
2023-01-29T21:52:18.334Z,89.28
2023-01-29T21:54:51.640Z,89.55
2023-01-29T21:57:26.678Z,89.46
2023-01-29T21:59:55.514Z,89.52
2023-01-29T22:02:24.059Z,89.58
2023-01-29T22:05:05.298Z,89.50
2023-01-29T22:07:46.332Z,89.70
2023-01-29T22:10:15.137Z,90.10
2023-01-29T22:12:44.602Z,89.92
2023-01-29T22:15:15.254Z,89.88
2023-01-29T22:17:44.707Z,89.83
2023-01-29T22:20:16.434Z,89.91
2023-01-29T22:22:45.700Z,90.20
2023-01-29T22:25:20.019Z,90.11
2023-01-29T22:27:49.232Z,90.13
2023-01-29T22:30:19.863Z,90.16
2023-01-29T22:32:51.463Z,90.45
2023-01-29T22:38:22.789Z,90.05
2023-01-29T22:40:53.152Z,90.14
2023-01-29T22:43:24.195Z,89.52
2023-01-29T22:45:53.770Z,89.54
2023-01-29T22:48:23.339Z,89.39
2023-01-29T22:51:10.640Z,89.41
2023-01-29T22:53:41.549Z,88.56
2023-01-29T22:56:12.904Z,88.70
2023-01-29T22:58:42.228Z,89.07
2023-01-29T23:01:12.022Z,89.19
2023-01-29T23:03:41.478Z,89.35
2023-01-29T23:06:13.644Z,89.16
2023-01-29T23:08:45.343Z,89.11
2023-01-29T23:11:15.921Z,89.10
2023-01-29T23:13:44.348Z,88.90
2023-01-29T23:16:20.320Z,89.02
2023-01-29T23:18:52.293Z,89.01
2023-01-29T23:21:23.499Z,88.63
2023-01-29T23:23:55.381Z,89.04
2023-01-29T23:26:41.762Z,89.07
2023-01-29T23:29:11.096Z,89.38
2023-01-29T23:31:40.892Z,89.46
2023-01-29T23:34:09.687Z,89.62
2023-01-29T23:36:41.574Z,89.20
2023-01-29T23:39:10.434Z,89.49
2023-01-29T23:41:38.725Z,89.46
2023-01-29T23:44:08.770Z,89.88
2023-01-29T23:46:37.792Z,90.09
2023-01-29T23:49:07.541Z,90.57
2023-01-29T23:51:37.373Z,90.80
2023-01-29T23:54:11.245Z,91.36
2023-01-29T23:56:39.857Z,91.74
2023-01-29T23:59:08.281Z,91.88
